Time;durP1;ratioP1;P1;durP2;ratioP2;P2;SDS_P1;SDS_P2;PMS_P1;PMS_P2;Temp;Humidity;BMP_temperature;BMP_pressure;BME280_temperature;BME280_humidity;BME280_pressure;Samples;Min_cycle;Max_cycle;Signal;HPM_P1;HPM_P2
2021/07/28 00:00:53;;;;;;;12.98;9.88;;;17.20;99.90;;;;;;5093340;28;20035;-72
2021/07/28 00:03:19;;;;;;;13.73;9.73;;;17.20;99.90;;;;;;5094519;28;20040;-72
2021/07/28 00:05:44;;;;;;;15.82;10.25;;;17.20;99.90;;;;;;5094382;28;20036;-72
2021/07/28 00:08:10;;;;;;;15.13;10.15;;;17.10;99.90;;;;;;5094663;28;20110;-72
2021/07/28 00:10:39;;;;;;;12.88;9.48;;;17.10;99.90;;;;;;5094085;28;20036;-71
2021/07/28 00:13:05;;;;;;;12.27;10.25;;;17.10;99.90;;;;;;5094181;28;20036;-72
2021/07/28 00:15:31;;;;;;;14.85;10.52;;;17.20;99.90;;;;;;5095042;28;20067;-73
2021/07/28 00:18:01;;;;;;;13.15;10.88;;;17.10;99.90;;;;;;5094296;28;20085;-72
2021/07/28 00:23:18;;;;;;;13.82;11.00;;;17.10;99.90;;;;;;5094601;28;20093;-73
2021/07/28 00:25:47;;;;;;;14.60;10.82;;;17.10;99.90;;;;;;5094329;28;20036;-73
2021/07/28 00:28:14;;;;;;;17.50;10.98;;;17.00;99.90;;;;;;5094000;28;20044;-74
2021/07/28 00:30:45;;;;;;;15.40;11.02;;;17.00;99.90;;;;;;5093630;28;20469;-72
2021/07/28 00:33:11;;;;;;;12.68;10.80;;;17.00;99.90;;;;;;5092712;28;20043;-73
2021/07/28 00:35:37;;;;;;;15.23;10.93;;;17.00;99.90;;;;;;5093833;28;20040;-71
2021/07/28 00:38:04;;;;;;;15.35;11.45;;;17.00;99.90;;;;;;5093957;28;20086;-72
2021/07/28 00:40:32;;;;;;;15.13;10.90;;;16.90;99.90;;;;;;5094047;28;20036;-72
2021/07/28 00:43:12;;;;;;;17.52;12.02;;;17.00;99.90;;;;;;5093822;28;20035;-73
2021/07/28 00:45:39;;;;;;;16.15;11.52;;;16.90;99.90;;;;;;5094086;28;20051;-72
2021/07/28 00:48:09;;;;;;;16.88;11.88;;;16.90;99.90;;;;;;5093806;28;20035;-71
2021/07/28 00:50:37;;;;;;;20.67;11.90;;;16.90;99.90;;;;;;5093471;28;20039;-71
2021/07/28 00:53:03;;;;;;;19.65;12.38;;;16.80;99.90;;;;;;5094236;28;20426;-71
2021/07/28 00:55:30;;;;;;;15.63;11.77;;;16.80;99.90;;;;;;5093570;28;20089;-71
2021/07/28 00:58:00;;;;;;;14.35;10.88;;;16.80;99.90;;;;;;5092430;28;20043;-71
2021/07/28 01:00:27;;;;;;;20.20;12.82;;;16.80;99.90;;;;;;5093800;28;20028;-71
2021/07/28 01:02:53;;;;;;;18.83;12.00;;;16.80;99.90;;;;;;5093579;28;20404;-71
2021/07/28 01:05:20;;;;;;;15.70;10.85;;;16.70;99.90;;;;;;5093675;28;20032;-71
2021/07/28 01:07:45;;;;;;;21.25;12.93;;;16.70;99.90;;;;;;5093667;28;20039;-71
2021/07/28 01:10:12;;;;;;;22.20;13.68;;;16.70;99.90;;;;;;5092956;28;20040;-71
2021/07/28 01:12:44;;;;;;;20.25;14.25;;;16.70;99.90;;;;;;5093247;28;20039;-71
2021/07/28 01:15:12;;;;;;;16.17;12.47;;;16.60;99.90;;;;;;5093726;28;20051;-71
2021/07/28 01:17:38;;;;;;;17.88;13.05;;;16.60;99.90;;;;;;5093894;28;20117;-71
2021/07/28 01:20:07;;;;;;;16.60;12.18;;;16.60;99.90;;;;;;5092941;28;20487;-71
2021/07/28 01:22:33;;;;;;;17.17;12.75;;;16.60;99.90;;;;;;5093750;28;20044;-71
2021/07/28 01:24:59;;;;;;;20.38;12.02;;;16.60;99.90;;;;;;5093507;28;20036;-71
2021/07/28 01:27:25;;;;;;;20.30;14.68;;;16.70;99.90;;;;;;5093369;28;20039;-71
2021/07/28 01:29:52;;;;;;;16.83;12.27;;;16.60;99.90;;;;;;5093236;28;20123;-71
2021/07/28 01:32:17;;;;;;;17.63;12.80;;;16.60;99.90;;;;;;5093213;28;20074;-71
2021/07/28 01:34:43;;;;;;;17.92;13.18;;;16.60;99.90;;;;;;5093361;28;20395;-71
2021/07/28 01:37:12;;;;;;;21.90;12.25;;;16.60;99.90;;;;;;5093252;28;20040;-71
2021/07/28 01:39:37;;;;;;;17.80;12.15;;;16.60;99.90;;;;;;5092841;28;20503;-71
2021/07/28 01:42:03;;;;;;;19.17;13.48;;;16.60;99.90;;;;;;5093089;28;20036;-71
2021/07/28 01:44:31;;;;;;;23.08;12.73;;;16.60;99.90;;;;;;5093025;28;20046;-71
2021/07/28 01:46:57;;;;;;;18.67;12.50;;;16.60;99.90;;;;;;5093228;28;20081;-71
2021/07/28 01:49:23;;;;;;;23.45;14.15;;;16.60;99.90;;;;;;5092764;28;20037;-71
2021/07/28 01:51:49;;;;;;;22.90;13.50;;;16.50;99.90;;;;;;5092973;28;20040;-71
2021/07/28 01:54:15;;;;;;;20.80;13.35;;;16.50;99.90;;;;;;5093023;28;20119;-71
2021/07/28 01:56:42;;;;;;;23.40;13.60;;;16.50;99.90;;;;;;5092967;28;20518;-71
2021/07/28 01:59:13;;;;;;;19.50;13.18;;;16.40;99.90;;;;;;5091986;28;20417;-71
2021/07/28 02:01:38;;;;;;;23.75;15.45;;;16.40;99.90;;;;;;5093062;28;20107;-71
2021/07/28 02:04:04;;;;;;;18.70;14.30;;;16.30;99.90;;;;;;5092911;28;20491;-71
2021/07/28 02:06:31;;;;;;;21.13;15.13;;;16.20;99.90;;;;;;5092944;28;20032;-71
2021/07/28 02:08:57;;;;;;;20.52;13.98;;;16.30;99.90;;;;;;5092661;28;20032;-71
2021/07/28 02:11:22;;;;;;;22.85;16.10;;;16.30;99.90;;;;;;5093373;28;20055;-71
2021/07/28 02:13:48;;;;;;;25.45;16.80;;;16.20;99.90;;;;;;5093323;28;20042;-70
2021/07/28 02:16:14;;;;;;;27.48;16.30;;;16.20;99.90;;;;;;5093420;28;20052;-71
2021/07/28 02:18:39;;;;;;;23.25;15.48;;;16.20;99.90;;;;;;5092603;28;20476;-71
2021/07/28 02:21:06;;;;;;;22.55;15.02;;;16.20;99.90;;;;;;5094267;28;20032;-71
2021/07/28 02:23:31;;;;;;;23.42;16.80;;;16.20;99.90;;;;;;5096501;28;20396;-71
2021/07/28 02:25:57;;;;;;;25.92;16.25;;;16.20;99.90;;;;;;5096426;28;20036;-71
2021/07/28 02:28:23;;;;;;;25.15;15.85;;;16.20;99.90;;;;;;5096269;28;20040;-71
2021/07/28 02:30:49;;;;;;;22.02;15.85;;;16.20;99.90;;;;;;5096449;28;20412;-71
2021/07/28 02:33:15;;;;;;;22.58;16.67;;;16.30;99.90;;;;;;5096840;28;20038;-71
2021/07/28 02:35:41;;;;;;;22.40;14.68;;;16.30;99.90;;;;;;5096298;28;20082;-71
2021/07/28 02:38:06;;;;;;;26.65;15.70;;;16.30;99.90;;;;;;5096592;28;20036;-71
2021/07/28 02:40:32;;;;;;;20.65;15.68;;;16.30;99.90;;;;;;5095748;28;20032;-71
2021/07/28 02:42:58;;;;;;;24.25;15.02;;;16.30;99.90;;;;;;5096614;28;20040;-71
2021/07/28 02:45:23;;;;;;;22.70;15.38;;;16.30;99.90;;;;;;5096771;28;20058;-71
2021/07/28 02:47:49;;;;;;;18.00;14.30;;;16.40;99.90;;;;;;5096138;28;20043;-71
2021/07/28 02:50:15;;;;;;;23.80;15.30;;;16.40;99.90;;;;;;5095821;28;20036;-70
2021/07/28 02:52:41;;;;;;;24.42;15.02;;;16.30;99.90;;;;;;5095897;28;20040;-71
2021/07/28 02:55:07;;;;;;;27.92;14.98;;;16.20;99.90;;;;;;5096317;28;20078;-71
2021/07/28 02:57:34;;;;;;;18.98;13.90;;;16.30;99.90;;;;;;5095961;28;20040;-71
2021/07/28 03:00:00;;;;;;;20.73;14.68;;;16.30;99.90;;;;;;5095501;28;20107;-71
2021/07/28 03:02:26;;;;;;;25.48;16.23;;;16.30;99.90;;;;;;5095867;28;20040;-71
2021/07/28 03:04:52;;;;;;;22.98;16.38;;;16.20;99.90;;;;;;5095796;28;20047;-71
2021/07/28 03:07:17;;;;;;;22.60;15.38;;;16.20;99.90;;;;;;5095958;28;20036;-71
2021/07/28 03:09:43;;;;;;;22.00;15.63;;;16.20;99.90;;;;;;5095480;28;20075;-71
2021/07/28 03:12:08;;;;;;;20.67;15.05;;;16.20;99.90;;;;;;5095616;28;20060;-71
2021/07/28 03:14:34;;;;;;;20.50;14.82;;;16.20;99.90;;;;;;5095262;28;20133;-71
2021/07/28 03:17:00;;;;;;;28.13;16.77;;;16.20;99.90;;;;;;5095398;28;20042;-71
2021/07/28 03:19:29;;;;;;;24.38;17.60;;;16.20;99.90;;;;;;5095282;28;20036;-71
2021/07/28 03:21:54;;;;;;;23.70;15.93;;;16.10;99.90;;;;;;5095261;28;20452;-71
2021/07/28 03:24:20;;;;;;;23.65;16.02;;;16.10;99.90;;;;;;5094512;28;20054;-71
2021/07/28 03:26:46;;;;;;;21.60;15.00;;;16.10;99.90;;;;;;5095173;28;20062;-71
2021/07/28 03:29:12;;;;;;;21.60;15.32;;;16.10;99.90;;;;;;5095246;28;20075;-71
2021/07/28 03:31:38;;;;;;;22.35;15.15;;;16.00;99.90;;;;;;5095125;28;20040;-71
2021/07/28 03:34:04;;;;;;;26.55;17.58;;;16.10;99.90;;;;;;5094999;28;20058;-71
2021/07/28 03:36:30;;;;;;;21.35;15.65;;;16.10;99.90;;;;;;5094925;28;20040;-71
2021/07/28 03:38:55;;;;;;;22.67;16.38;;;16.00;99.90;;;;;;5095055;28;20093;-71
2021/07/28 03:41:21;;;;;;;25.92;15.75;;;16.00;99.90;;;;;;5093655;28;20459;-71
2021/07/28 03:43:46;;;;;;;25.80;17.70;;;16.00;99.90;;;;;;5095363;28;20511;-71
2021/07/28 03:46:12;;;;;;;24.33;16.50;;;15.90;99.90;;;;;;5095004;28;20040;-71
2021/07/28 03:48:38;;;;;;;21.42;16.25;;;16.00;99.90;;;;;;5094516;28;20434;-71
2021/07/28 03:51:03;;;;;;;26.75;17.30;;;16.00;99.90;;;;;;5094851;28;20476;-71
2021/07/28 03:53:29;;;;;;;24.30;16.55;;;15.90;99.90;;;;;;5095242;28;20085;-71
2021/07/28 03:55:55;;;;;;;29.05;16.15;;;15.90;99.90;;;;;;5094753;28;20044;-71
2021/07/28 03:58:20;;;;;;;27.48;15.88;;;16.00;99.90;;;;;;5094840;28;20540;-71
2021/07/28 04:00:46;;;;;;;25.75;18.05;;;15.90;99.90;;;;;;5094359;28;20036;-71
2021/07/28 04:03:12;;;;;;;24.92;17.35;;;15.90;99.90;;;;;;5094805;28;20050;-71
2021/07/28 04:05:37;;;;;;;23.55;17.27;;;15.90;99.90;;;;;;5094470;28;20103;-71
2021/07/28 04:08:04;;;;;;;27.10;17.17;;;15.90;99.90;;;;;;5094792;28;20044;-71
2021/07/28 04:10:30;;;;;;;28.70;18.25;;;15.90;99.90;;;;;;5094133;28;20062;-71
2021/07/28 04:12:56;;;;;;;27.00;18.02;;;15.90;99.90;;;;;;5094290;28;20415;-71
2021/07/28 04:15:22;;;;;;;27.05;17.92;;;15.90;99.90;;;;;;5094231;28;20043;-71
2021/07/28 04:17:48;;;;;;;24.50;16.38;;;15.90;99.90;;;;;;5094677;28;20077;-71
2021/07/28 04:20:15;;;;;;;24.80;16.77;;;16.00;99.90;;;;;;5092653;28;20450;-71
2021/07/28 04:22:40;;;;;;;27.50;17.48;;;16.00;99.90;;;;;;5094825;28;20043;-71
2021/07/28 04:25:06;;;;;;;28.30;17.95;;;16.10;99.90;;;;;;5094212;28;20040;-71
2021/07/28 04:27:32;;;;;;;25.70;17.75;;;16.10;99.90;;;;;;5094084;28;20040;-71
2021/07/28 04:29:59;;;;;;;26.77;17.80;;;16.10;99.90;;;;;;5093960;28;20051;-71
2021/07/28 04:32:25;;;;;;;32.03;19.33;;;16.10;99.90;;;;;;5093973;28;20061;-70
2021/07/28 04:34:51;;;;;;;28.63;19.35;;;16.10;99.90;;;;;;5094179;28;20043;-71
2021/07/28 04:37:17;;;;;;;30.60;19.00;;;16.10;99.90;;;;;;5094029;28;20043;-71
2021/07/28 04:39:43;;;;;;;30.58;19.38;;;16.10;99.90;;;;;;5093561;28;20114;-71
2021/07/28 04:42:09;;;;;;;32.08;18.00;;;16.10;99.90;;;;;;5093785;28;20555;-71
2021/07/28 04:44:35;;;;;;;36.10;20.88;;;16.10;99.90;;;;;;5094116;28;20116;-70
2021/07/28 04:47:00;;;;;;;29.83;19.10;;;16.10;99.90;;;;;;5093952;28;20047;-71
2021/07/28 04:49:26;;;;;;;26.20;18.17;;;16.10;99.90;;;;;;5092270;28;20032;-71
2021/07/28 04:51:52;;;;;;;27.20;19.95;;;16.10;99.90;;;;;;5094018;28;20036;-71
2021/07/28 04:54:18;;;;;;;27.45;18.23;;;16.20;99.90;;;;;;5094174;28;20047;-71
2021/07/28 04:56:43;;;;;;;32.50;21.17;;;16.20;99.90;;;;;;5093703;28;20097;-70
2021/07/28 04:59:09;;;;;;;26.77;19.38;;;16.30;99.90;;;;;;5093204;28;20036;-71
2021/07/28 05:01:35;;;;;;;32.35;19.75;;;16.40;99.90;;;;;;5093555;28;20044;-71
2021/07/28 05:04:02;;;;;;;31.85;20.45;;;16.50;99.90;;;;;;5093585;28;20040;-70
2021/07/28 05:06:29;;;;;;;27.85;19.35;;;16.60;99.90;;;;;;5092677;28;20032;-71
2021/07/28 05:08:54;;;;;;;31.60;19.92;;;16.60;99.90;;;;;;5093344;28;20050;-71
2021/07/28 05:11:22;;;;;;;26.60;17.08;;;16.70;99.90;;;;;;5093529;28;20032;-71
2021/07/28 05:13:47;;;;;;;26.17;17.85;;;16.80;99.90;;;;;;5092823;28;20472;-71
2021/07/28 05:16:13;;;;;;;27.33;18.30;;;16.90;99.90;;;;;;5093585;28;20043;-71
2021/07/28 05:18:39;;;;;;;24.77;16.60;;;16.90;99.90;;;;;;5091875;28;20085;-74
2021/07/28 05:21:04;;;;;;;26.75;17.35;;;17.10;99.90;;;;;;5092435;28;20040;-71
2021/07/28 05:23:30;;;;;;;27.00;18.13;;;17.10;99.90;;;;;;5093318;28;20040;-71
2021/07/28 05:25:55;;;;;;;25.33;16.70;;;17.20;99.90;;;;;;5093480;28;20040;-71
2021/07/28 05:28:21;;;;;;;24.60;17.42;;;17.20;99.90;;;;;;5093164;28;20046;-71
2021/07/28 05:30:47;;;;;;;26.90;16.77;;;17.30;99.90;;;;;;5092896;28;20507;-71
2021/07/28 05:33:13;;;;;;;25.83;17.85;;;17.40;99.90;;;;;;5093596;28;20036;-71
2021/07/28 05:35:44;;;;;;;25.00;17.77;;;17.40;99.90;;;;;;5093282;28;20047;-73
2021/07/28 05:38:10;;;;;;;24.92;18.52;;;17.50;99.90;;;;;;5092755;28;20040;-73
2021/07/28 05:40:36;;;;;;;23.98;16.58;;;17.50;99.90;;;;;;5093471;28;20044;-73
2021/07/28 05:43:01;;;;;;;24.67;16.98;;;17.60;99.90;;;;;;5093569;28;20503;-73
2021/07/28 05:45:27;;;;;;;27.45;18.83;;;17.50;99.90;;;;;;5093131;28;20051;-71
2021/07/28 05:47:53;;;;;;;25.75;18.90;;;17.40;99.90;;;;;;5093194;28;20036;-72
2021/07/28 05:50:18;;;;;;;21.70;17.02;;;17.40;99.90;;;;;;5093027;28;20040;-72
2021/07/28 05:52:45;;;;;;;29.58;20.15;;;17.40;99.90;;;;;;5092504;28;20032;-72
2021/07/28 05:55:11;;;;;;;26.42;18.70;;;17.40;99.90;;;;;;5092823;28;20119;-72
2021/07/28 05:57:36;;;;;;;26.42;19.02;;;17.40;99.90;;;;;;5097211;28;20079;-72
2021/07/28 06:00:06;;;;;;;27.35;19.92;;;17.40;99.90;;;;;;5096785;28;20035;-72
2021/07/28 06:02:32;;;;;;;27.85;20.75;;;17.30;99.90;;;;;;5097053;28;20036;-72
2021/07/28 06:04:58;;;;;;;26.90;20.25;;;17.40;99.90;;;;;;5096943;28;20043;-72
2021/07/28 06:07:24;;;;;;;33.05;20.75;;;17.40;99.90;;;;;;5096733;28;20067;-72
2021/07/28 06:09:51;;;;;;;32.60;21.27;;;17.40;99.90;;;;;;5096658;28;20032;-72
2021/07/28 06:12:18;;;;;;;30.48;21.52;;;17.40;99.90;;;;;;5096596;28;20039;-72
2021/07/28 06:14:45;;;;;;;29.38;22.15;;;17.40;99.90;;;;;;5096505;28;20036;-72
2021/07/28 06:17:11;;;;;;;31.65;24.25;;;17.40;99.90;;;;;;5097035;28;20598;-72
2021/07/28 06:19:38;;;;;;;31.58;22.13;;;17.40;99.90;;;;;;5096344;28;20036;-72
2021/07/28 06:22:04;;;;;;;30.05;22.45;;;17.50;99.90;;;;;;5097002;28;20040;-72
2021/07/28 06:24:29;;;;;;;30.05;22.58;;;17.50;99.90;;;;;;5096355;28;20039;-72
2021/07/28 06:26:55;;;;;;;26.45;21.10;;;17.50;99.90;;;;;;5096455;28;20032;-72
2021/07/28 06:29:25;;;;;;;27.73;21.75;;;17.50;99.90;;;;;;5095975;28;20403;-72
2021/07/28 06:31:54;;;;;;;30.55;22.92;;;17.50;99.90;;;;;;5096670;28;20036;-71
2021/07/28 06:34:20;;;;;;;31.05;22.08;;;17.50;99.90;;;;;;5096309;28;20452;-72
2021/07/28 06:36:46;;;;;;;31.45;21.98;;;17.50;99.90;;;;;;5096832;28;20032;-72
2021/07/28 06:39:12;;;;;;;27.63;21.65;;;17.50;99.90;;;;;;5095827;28;20400;-72
2021/07/28 06:41:38;;;;;;;34.80;20.58;;;17.50;99.90;;;;;;5096263;28;20039;-72
2021/07/28 06:44:04;;;;;;;31.35;21.83;;;17.50;99.90;;;;;;5096336;28;20046;-72
2021/07/28 06:46:33;;;;;;;30.48;22.65;;;17.50;99.90;;;;;;5096452;28;20043;-72
2021/07/28 06:48:59;;;;;;;28.80;22.73;;;17.50;99.90;;;;;;5095787;28;20032;-72
2021/07/28 06:51:24;;;;;;;31.95;23.75;;;17.50;99.90;;;;;;5095972;28;20043;-72
2021/07/28 06:53:50;;;;;;;29.65;21.75;;;17.60;99.90;;;;;;5096324;28;20044;-72
2021/07/28 06:56:16;;;;;;;28.02;20.80;;;17.70;99.90;;;;;;5095842;28;20093;-72
2021/07/28 06:58:42;;;;;;;26.90;21.30;;;17.70;99.90;;;;;;5095519;28;20036;-72
2021/07/28 07:01:08;;;;;;;28.75;20.25;;;17.70;99.90;;;;;;5095710;28;20079;-72
2021/07/28 07:03:35;;;;;;;26.63;20.02;;;17.70;99.90;;;;;;5096071;28;20537;-72
2021/07/28 07:06:01;;;;;;;36.30;22.35;;;17.80;99.90;;;;;;5095750;28;20502;-72
2021/07/28 07:08:27;;;;;;;26.42;19.77;;;17.80;99.90;;;;;;5093985;28;20035;-72
2021/07/28 07:10:53;;;;;;;26.15;18.40;;;17.80;99.90;;;;;;5095749;28;20064;-71
2021/07/28 07:13:18;;;;;;;26.15;19.40;;;17.80;99.90;;;;;;5095300;28;20036;-72
2021/07/28 07:15:44;;;;;;;25.17;18.17;;;17.80;99.90;;;;;;5095499;28;20093;-72
2021/07/28 07:18:10;;;;;;;24.60;17.95;;;17.80;99.90;;;;;;5094371;28;20042;-72
2021/07/28 07:20:36;;;;;;;25.30;17.70;;;17.90;99.90;;;;;;5095037;28;20036;-72
2021/07/28 07:23:01;;;;;;;24.95;19.60;;;17.80;99.90;;;;;;5095910;28;20047;-71
2021/07/28 07:25:27;;;;;;;24.50;18.17;;;17.90;99.90;;;;;;5095504;28;20125;-71
2021/07/28 07:27:53;;;;;;;24.45;17.88;;;17.80;99.90;;;;;;5095259;28;20069;-72
2021/07/28 07:30:19;;;;;;;22.73;18.05;;;17.80;99.90;;;;;;5094899;28;20036;-72
2021/07/28 07:32:45;;;;;;;24.83;19.00;;;17.80;99.90;;;;;;5095160;28;20038;-72
2021/07/28 07:35:11;;;;;;;27.35;18.65;;;17.90;99.90;;;;;;5094944;28;20040;-71
2021/07/28 07:37:37;;;;;;;24.95;17.75;;;17.90;99.90;;;;;;5095132;28;20349;-72
2021/07/28 07:40:04;;;;;;;23.83;18.60;;;18.00;99.90;;;;;;5095018;28;20127;-71
2021/07/28 07:42:30;;;;;;;23.50;18.38;;;18.10;99.90;;;;;;5094798;28;20035;-69
2021/07/28 07:44:58;;;;;;;21.85;18.10;;;18.20;99.90;;;;;;5094836;28;20069;-70
2021/07/28 07:47:24;;;;;;;21.83;17.42;;;18.20;99.90;;;;;;5095022;28;20044;-71
2021/07/28 07:49:49;;;;;;;24.02;18.80;;;18.30;99.90;;;;;;5094508;28;20032;-72
2021/07/28 07:52:15;;;;;;;22.92;17.45;;;18.30;99.90;;;;;;5094912;28;20032;-72
2021/07/28 07:54:40;;;;;;;25.38;19.02;;;18.40;99.90;;;;;;5094778;28;20423;-72
2021/07/28 07:57:06;;;;;;;20.42;17.55;;;18.40;99.90;;;;;;5094756;28;20478;-72
2021/07/28 07:59:32;;;;;;;26.42;20.05;;;18.50;99.90;;;;;;5094291;28;20040;-72
2021/07/28 08:01:58;;;;;;;19.60;16.13;;;18.60;99.90;;;;;;5094945;28;20051;-71
2021/07/28 08:04:23;;;;;;;24.45;18.00;;;18.80;99.90;;;;;;5094619;28;20395;-71
2021/07/28 08:06:50;;;;;;;20.13;16.23;;;19.00;99.90;;;;;;5093758;28;20032;-71
2021/07/28 08:09:16;;;;;;;19.90;15.80;;;19.50;99.90;;;;;;5094328;28;20032;-71
2021/07/28 08:11:42;;;;;;;17.40;14.25;;;19.90;99.90;;;;;;5094392;28;20032;-72
2021/07/28 08:14:07;;;;;;;16.23;13.27;;;20.20;99.90;;;;;;5094192;28;20044;-72
2021/07/28 08:16:33;;;;;;;16.58;13.20;;;20.30;99.90;;;;;;5094409;28;20480;-71
2021/07/28 08:18:59;;;;;;;17.20;14.00;;;20.40;99.90;;;;;;5092144;28;20044;-71
2021/07/28 08:21:24;;;;;;;16.48;13.57;;;20.70;99.90;;;;;;5094299;28;20042;-70
2021/07/28 08:23:50;;;;;;;17.65;13.77;;;21.10;99.90;;;;;;5094061;28;20039;-71
2021/07/28 08:26:16;;;;;;;18.48;13.18;;;21.40;99.90;;;;;;5094231;28;20476;-71
2021/07/28 08:28:43;;;;;;;17.60;13.80;;;21.70;99.90;;;;;;5094129;28;20074;-71
2021/07/28 08:31:09;;;;;;;15.15;13.07;;;21.90;99.90;;;;;;5094125;28;20047;-70
2021/07/28 08:33:35;;;;;;;17.45;13.98;;;22.00;99.90;;;;;;5094575;28;20119;-71
2021/07/28 08:36:02;;;;;;;18.77;13.55;;;22.00;99.90;;;;;;5093953;28;20040;-71
2021/07/28 08:38:28;;;;;;;12.93;11.18;;;21.90;99.90;;;;;;5093634;28;20032;-69
2021/07/28 08:41:03;;;;;;;14.25;12.43;;;21.60;99.90;;;;;;5093885;28;20047;-71
2021/07/28 08:43:37;;;;;;;15.55;12.43;;;21.40;99.90;;;;;;5093922;28;20381;-71
2021/07/28 08:46:05;;;;;;;17.00;12.57;;;21.10;99.90;;;;;;5093743;28;20040;-71
2021/07/28 08:48:31;;;;;;;16.00;12.02;;;20.80;99.90;;;;;;5093401;28;20042;-71
2021/07/28 08:50:58;;;;;;;15.15;12.23;;;21.10;99.90;;;;;;5093691;28;20036;-70
2021/07/28 08:53:24;;;;;;;14.77;12.10;;;21.00;99.90;;;;;;5093975;28;20044;-71
2021/07/28 08:55:52;;;;;;;15.65;11.75;;;20.90;99.90;;;;;;5093658;28;20048;-71
2021/07/28 08:58:21;;;;;;;17.65;12.98;;;20.80;99.90;;;;;;5093734;28;20060;-71
2021/07/28 09:00:47;;;;;;;18.55;11.75;;;20.70;99.90;;;;;;5093643;28;20043;-71
2021/07/28 09:03:13;;;;;;;19.70;12.63;;;20.60;99.90;;;;;;5093599;28;20040;-71
2021/07/28 09:05:41;;;;;;;16.65;12.05;;;20.50;99.90;;;;;;5093564;28;20408;-71
2021/07/28 09:08:22;;;;;;;13.32;11.77;;;20.60;99.90;;;;;;5093435;28;20063;-71
2021/07/28 09:10:49;;;;;;;16.95;13.35;;;20.50;99.90;;;;;;5093214;28;20044;-71
2021/07/28 09:13:17;;;;;;;13.48;11.63;;;20.50;99.90;;;;;;5093467;28;20526;-71
2021/07/28 09:15:44;;;;;;;14.57;11.25;;;20.70;99.90;;;;;;5093986;28;20039;-71
2021/07/28 09:18:29;;;;;;;15.05;10.80;;;21.10;99.90;;;;;;5093375;28;20042;-71
2021/07/28 09:20:55;;;;;;;13.38;11.43;;;21.60;99.90;;;;;;5093249;28;20032;-72
2021/07/28 09:23:20;;;;;;;16.20;10.65;;;21.90;99.90;;;;;;5093314;28;20036;-71
2021/07/28 09:25:52;;;;;;;14.75;11.23;;;22.00;99.90;;;;;;5093746;28;20071;-72
2021/07/28 09:28:20;;;;;;;16.30;11.80;;;21.80;99.90;;;;;;5093550;28;20115;-72
2021/07/28 09:30:46;;;;;;;16.73;12.35;;;21.50;99.90;;;;;;5095410;28;20285;-71
2021/07/28 09:33:12;;;;;;;11.95;10.68;;;21.30;99.90;;;;;;5098164;28;20032;-71
2021/07/28 09:36:00;;;;;;;16.48;11.30;;;21.40;99.90;;;;;;5097674;28;20564;-72
2021/07/28 09:38:33;;;;;;;14.50;12.15;;;21.50;99.90;;;;;;5097180;28;20044;-71
2021/07/28 09:41:18;;;;;;;13.65;10.65;;;21.30;99.90;;;;;;5097629;28;20032;-71
2021/07/28 09:43:52;;;;;;;12.95;10.50;;;21.60;99.90;;;;;;5097883;28;20109;-71
2021/07/28 09:46:27;;;;;;;12.98;10.65;;;22.10;99.90;;;;;;5097459;28;20111;-72
2021/07/28 09:48:53;;;;;;;11.98;10.15;;;22.40;99.90;;;;;;5097281;28;20429;-72
2021/07/28 09:51:27;;;;;;;11.48;9.88;;;22.30;99.90;;;;;;5096171;28;20057;-72
2021/07/28 09:53:57;;;;;;;13.80;10.65;;;22.00;99.90;;;;;;5097007;28;20039;-72
2021/07/28 09:56:32;;;;;;;13.07;10.77;;;21.80;99.90;;;;;;5096549;28;20051;-72
2021/07/28 09:58:59;;;;;;;13.23;10.25;;;21.60;99.90;;;;;;5095357;28;20046;-72
2021/07/28 10:01:28;;;;;;;15.82;12.52;;;21.20;99.90;;;;;;5093215;28;20108;-73
2021/07/28 10:03:58;;;;;;;15.93;13.70;;;21.20;99.90;;;;;;5076827;28;20098;-71
2021/07/28 10:06:27;;;;;;;15.43;11.85;;;21.20;99.90;;;;;;5076922;28;20040;-70
2021/07/28 10:08:53;;;;;;;12.10;9.68;;;21.40;99.90;;;;;;5076154;28;20068;-71
2021/07/28 10:11:23;;;;;;;13.63;9.77;;;21.70;99.90;;;;;;5075907;28;20040;-71
2021/07/28 10:13:51;;;;;;;11.95;8.90;;;21.60;99.90;;;;;;5076039;28;20053;-71
2021/07/28 10:16:18;;;;;;;14.15;9.48;;;21.50;99.90;;;;;;5076677;28;20037;-71
2021/07/28 10:18:48;;;;;;;12.98;11.15;;;21.30;99.90;;;;;;5075954;28;20033;-71
2021/07/28 10:21:15;;;;;;;9.77;8.63;;;21.20;99.90;;;;;;5076341;28;20094;-71
2021/07/28 10:23:45;;;;;;;11.88;9.57;;;21.00;99.90;;;;;;5075802;28;20048;-71
2021/07/28 10:26:17;;;;;;;13.95;10.65;;;20.90;99.90;;;;;;5058700;28;20511;-72
2021/07/28 10:28:47;;;;;;;17.33;10.82;;;20.70;99.90;;;;;;5074781;28;20040;-71
2021/07/28 10:31:15;;;;;;;11.50;9.27;;;20.50;99.90;;;;;;5075920;28;20405;-70
2021/07/28 10:33:51;;;;;;;10.23;9.15;;;20.90;99.90;;;;;;5076651;28;20043;-70
2021/07/28 10:36:19;;;;;;;11.88;7.90;;;21.10;99.90;;;;;;5076317;28;20037;-70
2021/07/28 10:38:53;;;;;;;9.43;7.72;;;21.40;99.90;;;;;;5075698;28;20063;-70
2021/07/28 10:41:38;;;;;;;9.48;8.52;;;21.70;99.90;;;;;;5075477;28;20037;-70
2021/07/28 10:44:09;;;;;;;12.85;9.52;;;22.10;99.90;;;;;;5075347;28;20056;-70
2021/07/28 10:46:54;;;;;;;9.55;8.35;;;22.20;99.90;;;;;;5074777;28;20040;-71
2021/07/28 10:49:34;;;;;;;9.10;7.43;;;22.00;99.90;;;;;;5075628;28;20040;-71
2021/07/28 10:52:01;;;;;;;9.32;7.63;;;21.80;99.90;;;;;;5076016;28;20504;-71
2021/07/28 10:54:45;;;;;;;10.45;7.78;;;21.60;99.90;;;;;;5075736;28;20044;-70
2021/07/28 10:57:34;;;;;;;12.68;8.27;;;21.60;99.90;;;;;;5075825;28;20040;-70
2021/07/28 11:00:00;;;;;;;9.90;8.75;;;21.40;99.90;;;;;;5075361;28;20442;-70
2021/07/28 11:02:55;;;;;;;8.50;7.60;;;21.30;99.90;;;;;;5075374;28;20597;-69
2021/07/28 11:05:27;;;;;;;9.73;7.97;;;21.20;99.90;;;;;;5075027;28;20037;-69
2021/07/28 11:08:02;;;;;;;11.02;7.57;;;21.10;99.90;;;;;;5075358;28;20037;-69
2021/07/28 11:10:28;;;;;;;8.57;7.75;;;20.90;99.90;;;;;;5075188;28;20029;-70
2021/07/28 11:12:55;;;;;;;9.60;7.53;;;20.60;99.90;;;;;;5075416;28;20082;-70
2021/07/28 11:15:21;;;;;;;12.13;9.32;;;20.40;99.90;;;;;;5075708;28;20043;-70
2021/07/28 11:17:52;;;;;;;10.52;8.55;;;20.50;99.90;;;;;;5075318;28;20032;-70
2021/07/28 11:20:32;;;;;;;11.02;9.70;;;20.60;99.90;;;;;;5074797;28;20074;-70
2021/07/28 11:23:20;;;;;;;10.63;8.43;;;20.80;99.90;;;;;;5075538;28;20083;-70
2021/07/28 11:25:49;;;;;;;12.50;9.82;;;21.00;99.90;;;;;;5075648;28;20071;-70
2021/07/28 11:28:17;;;;;;;10.48;9.38;;;21.00;99.90;;;;;;5075068;28;20032;-70
2021/07/28 11:30:43;;;;;;;10.48;8.30;;;21.00;99.90;;;;;;5074611;28;20481;-70
2021/07/28 11:33:16;;;;;;;15.45;8.82;;;21.10;99.90;;;;;;5074967;28;20033;-69
2021/07/28 11:35:46;;;;;;;12.48;9.63;;;21.00;99.90;;;;;;5075394;28;20036;-70
2021/07/28 11:38:25;;;;;;;12.02;9.00;;;21.00;99.90;;;;;;5075083;28;20078;-70
2021/07/28 11:40:58;;;;;;;13.18;9.63;;;20.90;99.90;;;;;;5074491;28;20051;-70
2021/07/28 11:43:41;;;;;;;10.05;8.60;;;20.90;99.90;;;;;;5074625;28;20039;-70
2021/07/28 11:46:18;;;;;;;11.10;7.47;;;20.80;99.90;;;;;;5075090;28;20055;-70
2021/07/28 11:48:45;;;;;;;7.68;6.88;;;20.90;99.90;;;;;;5074321;28;20484;-70
2021/07/28 11:51:27;;;;;;;10.13;6.30;;;20.90;99.90;;;;;;5074680;28;20499;-70
2021/07/28 11:54:06;;;;;;;7.03;6.30;;;20.90;99.90;;;;;;5073484;28;20481;-70
2021/07/28 11:56:31;;;;;;;9.52;7.43;;;20.80;99.90;;;;;;5074655;28;20481;-71
2021/07/28 11:59:00;;;;;;;7.82;6.57;;;20.70;99.90;;;;;;5074221;28;20112;-70
2021/07/28 12:01:31;;;;;;;6.82;6.13;;;20.70;99.90;;;;;;5056663;28;20114;-70
2021/07/28 12:04:04;;;;;;;10.00;6.70;;;20.70;99.90;;;;;;5074787;28;20115;-70
2021/07/28 12:06:43;;;;;;;16.08;6.60;;;20.70;99.90;;;;;;5074778;28;20067;-70
2021/07/28 12:09:16;;;;;;;7.13;5.53;;;20.80;99.90;;;;;;5073929;28;20040;-70
2021/07/28 12:11:46;;;;;;;6.90;5.15;;;20.80;99.90;;;;;;5074379;28;20036;-70
2021/07/28 12:14:21;;;;;;;6.28;5.38;;;20.90;99.90;;;;;;5073996;28;20068;-70
2021/07/28 12:16:47;;;;;;;5.85;5.32;;;21.10;99.90;;;;;;5074626;28;20479;-70
2021/07/28 12:19:13;;;;;;;10.20;5.53;;;21.10;99.90;;;;;;5073911;28;20040;-70
2021/07/28 12:22:04;;;;;;;8.15;5.97;;;21.30;99.90;;;;;;5073869;28;20037;-70
2021/07/28 12:24:35;;;;;;;11.25;5.70;;;21.30;99.90;;;;;;5074351;28;20436;-70
2021/07/28 12:27:29;;;;;;;12.35;6.20;;;21.20;99.90;;;;;;5073944;28;20037;-70
2021/07/28 12:29:58;;;;;;;;;;;21.10;99.90;;;;;;5074091;28;20047;-70
2021/07/28 12:32:41;;;;;;;11.55;6.43;;;21.10;99.90;;;;;;5073678;28;20281;-70
2021/07/28 12:35:25;;;;;;;9.27;6.53;;;21.20;99.90;;;;;;5073736;28;20434;-70
2021/07/28 12:38:08;;;;;;;10.82;7.35;;;21.30;99.90;;;;;;5073857;28;20063;-70